Flugplatz Mosenberg

Für EDEM sind keine METAR/TAF Berichte vorhanden.
Es werden die Flugwettermeldungen vom Flugplatz Fritzlar Airport in 11 km Entfernung angezeigt.

Bericht für ETHF

vom 07.03. um 02:20 UTC

Wind 5 kt aus 310°

Sichtweite 10 km oder mehr

Temperatur -4.0°C

Taupunkt -5.0°C

Luftfeuchtigkeit 93%

Luftdruck 1027 hPa

ETHF 070220Z AUTO 31005KT 9999 // ////// M04/M05 Q1027 ///
Keine Prognose (TAF) verfügbar.
Impressum